createdAt,value
2023-02-06T00:01:15.845Z,-2.92
2023-02-06T00:03:43.120Z,-2.98
2023-02-06T00:06:10.183Z,-3.08
2023-02-06T00:08:37.323Z,-3.13
2023-02-06T00:11:07.592Z,-3.16
2023-02-06T00:13:36.018Z,-3.18
2023-02-06T00:16:03.696Z,-3.19
2023-02-06T00:18:31.278Z,-3.16
2023-02-06T00:20:58.358Z,-3.13
2023-02-06T00:23:25.531Z,-3.17
2023-02-06T00:25:52.662Z,-3.17
2023-02-06T00:28:19.954Z,-3.20
2023-02-06T00:30:48.355Z,-3.25
2023-02-06T00:33:15.787Z,-3.29
2023-02-06T00:35:42.984Z,-3.22
2023-02-06T00:38:13.193Z,-3.20
2023-02-06T00:40:40.430Z,-3.25
2023-02-06T00:43:07.524Z,-3.21
2023-02-06T00:45:34.876Z,-3.30
2023-02-06T00:48:02.309Z,-3.08
2023-02-06T00:50:30.003Z,-3.05
2023-02-06T00:52:57.339Z,-3.05
2023-02-06T00:55:24.578Z,-3.03
2023-02-06T00:57:51.635Z,-3.01
2023-02-06T01:00:19.319Z,-2.94
2023-02-06T01:02:46.465Z,-2.93
2023-02-06T01:05:14.346Z,-2.92
2023-02-06T01:07:41.525Z,-2.97
2023-02-06T01:10:11.420Z,-2.92
2023-02-06T01:12:40.064Z,-2.98
2023-02-06T01:15:10.173Z,-2.97
2023-02-06T01:17:38.506Z,-2.96
2023-02-06T01:20:10.079Z,-3.01
2023-02-06T01:22:37.708Z,-2.88
2023-02-06T01:25:06.481Z,-2.90
2023-02-06T01:27:36.907Z,-2.86
2023-02-06T01:30:06.961Z,-2.84
2023-02-06T01:32:38.190Z,-2.81
2023-02-06T01:35:07.520Z,-2.78
2023-02-06T01:37:35.792Z,-2.81
2023-02-06T01:40:04.564Z,-2.88
2023-02-06T01:42:35.816Z,-2.78
2023-02-06T01:45:27.090Z,-2.77
2023-02-06T01:48:06.325Z,-2.83
2023-02-06T01:50:36.325Z,-2.83
2023-02-06T01:53:06.309Z,-2.93
2023-02-06T01:55:36.377Z,-2.84
2023-02-06T01:58:05.034Z,-2.84
2023-02-06T02:00:32.511Z,-2.81
2023-02-06T02:02:59.812Z,-2.80
2023-02-06T02:05:26.979Z,-2.79
2023-02-06T02:08:02.285Z,-2.89
2023-02-06T02:10:30.987Z,-2.79
2023-02-06T02:12:58.824Z,-2.77
2023-02-06T02:15:47.915Z,-2.76
2023-02-06T02:18:35.648Z,-2.81
2023-02-06T02:21:33.766Z,-2.81
2023-02-06T02:24:03.668Z,-2.77
2023-02-06T02:27:08.768Z,-2.73
2023-02-06T02:29:51.104Z,-2.74
2023-02-06T02:32:44.055Z,-2.77
2023-02-06T02:35:31.681Z,-2.81
2023-02-06T02:38:16.576Z,-2.86
2023-02-06T02:40:57.698Z,-2.89
2023-02-06T02:43:31.286Z,-2.87
2023-02-06T02:46:29.337Z,-2.90
2023-02-06T02:49:03.481Z,-2.92
2023-02-06T02:51:31.094Z,-2.88
2023-02-06T02:53:58.473Z,-2.85
2023-02-06T02:56:29.067Z,-2.85
2023-02-06T02:59:05.158Z,-2.82
2023-02-06T03:01:37.465Z,-2.83
2023-02-06T03:04:11.508Z,-2.81
2023-02-06T03:06:56.997Z,-2.77
2023-02-06T03:09:38.994Z,-2.76
2023-02-06T03:12:20.456Z,-2.75
2023-02-06T03:14:53.702Z,-2.74
2023-02-06T03:17:36.480Z,-2.72
2023-02-06T03:20:08.223Z,-2.71
2023-02-06T03:22:37.301Z,-2.76
2023-02-06T03:25:10.533Z,-2.76
2023-02-06T03:27:40.992Z,-2.68
2023-02-06T03:30:10.682Z,-2.63
2023-02-06T03:32:42.991Z,-2.61
2023-02-06T03:35:18.200Z,-2.60
2023-02-06T03:37:46.682Z,-2.59
2023-02-06T03:40:14.648Z,-2.64
2023-02-06T03:42:52.954Z,-2.68
2023-02-06T03:45:32.170Z,-2.64
2023-02-06T03:48:04.600Z,-2.68
2023-02-06T03:50:34.738Z,-2.62
2023-02-06T03:53:04.843Z,-2.69
2023-02-06T03:55:31.806Z,-2.64
2023-02-06T03:58:06.835Z,-2.61
2023-02-06T04:00:35.172Z,-2.61
2023-02-06T04:03:03.023Z,-2.62
2023-02-06T04:05:30.238Z,-2.60
2023-02-06T04:07:57.659Z,-2.68
2023-02-06T04:10:26.337Z,-2.60
2023-02-06T04:12:54.085Z,-2.60
2023-02-06T04:15:21.723Z,-2.61
2023-02-06T04:17:59.500Z,-2.59
2023-02-06T04:20:27.782Z,-2.59
2023-02-06T04:22:54.913Z,-2.55
2023-02-06T04:25:22.209Z,-2.56
2023-02-06T04:27:50.074Z,-2.55
2023-02-06T04:30:18.524Z,-2.56
2023-02-06T04:32:45.854Z,-2.51
2023-02-06T04:35:13.057Z,-2.53
2023-02-06T04:37:40.192Z,-2.55
2023-02-06T04:40:07.781Z,-2.48
2023-02-06T04:42:34.940Z,-2.48
2023-02-06T04:45:02.100Z,-2.49
2023-02-06T04:47:29.148Z,-2.53
2023-02-06T04:49:56.180Z,-2.51
2023-02-06T04:52:23.373Z,-2.51
2023-02-06T04:54:50.506Z,-2.51
2023-02-06T04:57:17.643Z,-2.55
2023-02-06T04:59:44.776Z,-2.47
2023-02-06T05:02:11.861Z,-2.48
2023-02-06T05:04:39.406Z,-2.49
2023-02-06T05:07:06.797Z,-2.50
2023-02-06T05:09:34.009Z,-2.52
2023-02-06T05:12:01.252Z,-2.77
2023-02-06T05:14:28.440Z,-2.59
2023-02-06T05:16:55.526Z,-2.57
2023-02-06T05:19:22.750Z,-2.62
2023-02-06T05:21:49.950Z,-2.60
2023-02-06T05:24:17.122Z,-2.57
2023-02-06T05:26:45.258Z,-2.59
2023-02-06T05:29:12.382Z,-2.61
2023-02-06T05:31:39.590Z,-2.58
2023-02-06T05:34:06.677Z,-2.64
2023-02-06T05:36:33.767Z,-2.68
2023-02-06T05:39:00.876Z,-2.71
2023-02-06T05:41:28.186Z,-2.73
2023-02-06T05:43:55.222Z,-2.72
2023-02-06T05:46:22.387Z,-2.71
2023-02-06T05:48:49.494Z,-2.73
2023-02-06T05:51:17.117Z,-2.76
2023-02-06T05:53:44.339Z,-2.76
2023-02-06T05:56:11.503Z,-2.78
2023-02-06T05:58:38.573Z,-2.77
2023-02-06T06:01:05.769Z,-2.80
2023-02-06T06:03:33.571Z,-2.89
2023-02-06T06:06:00.784Z,-2.85
2023-02-06T06:08:28.076Z,-2.91
2023-02-06T06:10:55.201Z,-2.91
2023-02-06T06:13:22.429Z,-2.93
2023-02-06T06:15:53.204Z,-2.99
2023-02-06T06:18:21.681Z,-3.03
2023-02-06T06:20:49.290Z,-3.01
2023-02-06T06:23:16.923Z,-3.16
2023-02-06T06:25:44.289Z,-3.00
2023-02-06T06:28:11.255Z,-3.01
2023-02-06T06:30:38.680Z,-3.04
2023-02-06T06:33:06.045Z,-3.06
2023-02-06T06:35:33.455Z,-3.00
2023-02-06T06:38:00.629Z,-3.05
2023-02-06T06:40:27.638Z,-3.02
2023-02-06T06:42:54.783Z,-3.02
2023-02-06T06:45:21.956Z,-2.99
2023-02-06T06:47:49.098Z,-3.05
2023-02-06T06:50:16.255Z,-2.95
2023-02-06T06:52:43.276Z,-2.87
2023-02-06T06:55:10.744Z,-2.83
2023-02-06T06:57:37.969Z,-2.79
2023-02-06T07:00:05.733Z,-2.83
2023-02-06T07:02:32.903Z,-2.68
2023-02-06T07:05:00.700Z,-2.64
2023-02-06T07:07:28.160Z,-2.55
2023-02-06T07:09:55.682Z,-2.61
2023-02-06T07:12:23.267Z,-2.53
2023-02-06T07:14:50.398Z,-2.48
2023-02-06T07:17:17.515Z,-2.42
2023-02-06T07:19:48.402Z,-2.33
2023-02-06T07:22:16.010Z,-2.28
2023-02-06T07:24:43.448Z,-2.16
2023-02-06T07:27:11.071Z,-2.09
2023-02-06T07:29:38.630Z,-2.08
2023-02-06T07:32:06.716Z,-1.97
2023-02-06T07:34:34.081Z,-1.92
2023-02-06T07:37:01.290Z,-1.87
2023-02-06T07:39:28.647Z,-1.79
2023-02-06T07:41:56.017Z,-1.81
2023-02-06T07:44:30.174Z,-1.68
2023-02-06T07:46:57.558Z,-1.63
2023-02-06T07:49:25.026Z,-1.56
2023-02-06T07:51:52.422Z,-1.51
2023-02-06T07:54:20.796Z,-1.43
2023-02-06T07:56:48.082Z,-1.30
2023-02-06T07:59:15.159Z,-1.27
2023-02-06T08:01:42.316Z,-1.19
2023-02-06T08:04:10.973Z,-1.18
2023-02-06T08:06:41.094Z,-1.03
2023-02-06T08:09:08.249Z,-0.95
2023-02-06T08:11:36.195Z,-0.87
2023-02-06T08:14:03.260Z,-0.82
2023-02-06T08:16:30.883Z,-0.77
2023-02-06T08:18:58.018Z,-0.78
2023-02-06T08:21:26.004Z,-0.68
2023-02-06T08:24:00.739Z,-0.58
2023-02-06T08:26:30.040Z,-0.39
2023-02-06T08:29:00.740Z,-0.30
2023-02-06T08:31:31.036Z,-0.13
2023-02-06T08:33:58.274Z,0.01
2023-02-06T08:36:26.400Z,-0.06
2023-02-06T08:38:53.870Z,0.22
2023-02-06T08:41:25.304Z,0.34
2023-02-06T08:43:54.989Z,0.46
2023-02-06T08:46:23.418Z,0.50
2023-02-06T08:48:56.619Z,0.59
2023-02-06T08:51:27.987Z,0.69
2023-02-06T08:54:04.438Z,0.79
2023-02-06T08:56:34.254Z,0.79
2023-02-06T08:59:01.835Z,0.82
2023-02-06T09:01:32.204Z,0.82
2023-02-06T09:04:02.029Z,0.93
2023-02-06T09:06:29.529Z,1.00
2023-02-06T09:08:57.749Z,1.02
2023-02-06T09:11:26.512Z,1.02
2023-02-06T09:13:56.725Z,1.12
2023-02-06T09:16:24.624Z,1.23
2023-02-06T09:18:54.208Z,1.38
2023-02-06T09:21:24.711Z,1.55
2023-02-06T09:23:54.960Z,1.58
2023-02-06T09:26:28.989Z,1.54
2023-02-06T09:28:58.247Z,1.46
2023-02-06T09:31:26.895Z,1.44
2023-02-06T09:33:54.206Z,1.38
2023-02-06T09:36:22.102Z,1.16
2023-02-06T09:38:53.622Z,1.20
2023-02-06T09:41:51.238Z,1.25
2023-02-06T09:44:37.474Z,1.30
2023-02-06T09:47:33.940Z,1.31
2023-02-06T09:50:07.831Z,1.38
2023-02-06T09:53:08.947Z,1.40
2023-02-06T09:55:48.900Z,1.36
2023-02-06T09:58:34.268Z,1.27
2023-02-06T10:01:01.343Z,1.23
2023-02-06T10:03:34.508Z,1.21
2023-02-06T10:06:11.820Z,1.21
2023-02-06T10:08:44.891Z,1.27
2023-02-06T10:11:20.017Z,1.35
2023-02-06T10:13:55.550Z,1.35
2023-02-06T10:16:41.009Z,1.33
2023-02-06T10:19:35.897Z,1.24
2023-02-06T10:22:10.416Z,1.21
2023-02-06T10:24:45.916Z,1.22
2023-02-06T10:27:15.154Z,1.19
2023-02-06T10:29:45.282Z,1.07
2023-02-06T10:32:24.220Z,1.10
2023-02-06T10:35:01.053Z,1.15
2023-02-06T10:38:06.202Z,1.22
2023-02-06T10:40:51.520Z,1.26
2023-02-06T10:43:49.476Z,1.31
2023-02-06T10:46:38.999Z,1.32
2023-02-06T10:49:06.151Z,1.31
2023-02-06T10:51:38.198Z,1.35
2023-02-06T10:54:26.389Z,1.37
2023-02-06T10:56:57.180Z,1.41
2023-02-06T10:59:34.660Z,1.44
2023-02-06T11:02:18.024Z,1.40
2023-02-06T11:04:52.563Z,1.38
2023-02-06T11:07:27.064Z,1.35
2023-02-06T11:09:54.610Z,1.31
2023-02-06T11:12:31.344Z,1.24
2023-02-06T11:15:03.461Z,1.28
2023-02-06T11:17:31.671Z,1.21
2023-02-06T11:20:17.337Z,1.21
2023-02-06T11:22:52.739Z,1.25
2023-02-06T11:25:25.867Z,1.22
2023-02-06T11:27:53.648Z,1.19
2023-02-06T11:30:35.159Z,1.16
2023-02-06T11:33:36.722Z,1.07
2023-02-06T11:36:05.439Z,1.05
2023-02-06T11:38:33.276Z,1.11
2023-02-06T11:41:03.810Z,1.07
2023-02-06T11:43:33.845Z,1.11
2023-02-06T11:46:14.432Z,1.10
2023-02-06T11:49:01.201Z,1.06
2023-02-06T11:51:46.992Z,1.06
2023-02-06T11:54:28.181Z,1.08
2023-02-06T11:57:09.604Z,1.07
2023-02-06T11:59:49.609Z,1.00
2023-02-06T12:02:49.977Z,1.06
2023-02-06T12:05:20.154Z,1.13
2023-02-06T12:07:53.411Z,1.13
2023-02-06T12:10:23.764Z,1.14
2023-02-06T12:12:58.121Z,1.17
2023-02-06T12:15:46.663Z,1.18
2023-02-06T12:18:19.053Z,1.25
2023-02-06T12:20:53.562Z,1.25
2023-02-06T12:23:34.012Z,1.31
2023-02-06T12:26:08.434Z,1.37
2023-02-06T12:28:52.826Z,1.39
2023-02-06T12:31:35.233Z,1.43
2023-02-06T12:34:11.419Z,1.45
2023-02-06T12:36:53.654Z,1.48
2023-02-06T12:39:23.569Z,1.47
2023-02-06T12:41:56.629Z,1.50
2023-02-06T12:44:28.452Z,1.52
2023-02-06T12:47:05.431Z,1.48
2023-02-06T12:49:40.099Z,1.44
2023-02-06T12:52:33.074Z,1.41
2023-02-06T12:55:11.964Z,1.40
2023-02-06T12:57:40.056Z,1.39
2023-02-06T13:00:34.492Z,1.41
2023-02-06T13:03:40.903Z,1.36
2023-02-06T13:06:27.654Z,1.45
2023-02-06T13:09:06.655Z,1.44
2023-02-06T13:11:40.845Z,1.22
2023-02-06T13:14:19.586Z,1.44
2023-02-06T13:16:54.191Z,1.43
2023-02-06T13:19:26.909Z,1.42
2023-02-06T13:22:14.539Z,1.41
2023-02-06T13:24:49.447Z,1.38
2023-02-06T13:27:36.411Z,1.38
2023-02-06T13:30:31.191Z,1.37
2023-02-06T13:33:19.258Z,1.38
2023-02-06T13:36:09.897Z,1.37
2023-02-06T13:38:39.000Z,1.35
2023-02-06T13:41:15.297Z,1.37
2023-02-06T13:43:51.742Z,1.38
2023-02-06T13:46:23.651Z,1.32
2023-02-06T13:49:15.015Z,1.29
2023-02-06T13:51:56.719Z,1.28
2023-02-06T13:54:26.853Z,1.26
2023-02-06T13:56:59.757Z,1.18
2023-02-06T13:59:35.673Z,1.17
2023-02-06T14:02:14.983Z,1.12
2023-02-06T14:04:45.533Z,1.03
2023-02-06T14:08:06.168Z,1.08
2023-02-06T14:10:44.223Z,1.00
2023-02-06T14:13:26.417Z,1.01
2023-02-06T14:16:14.642Z,0.98
2023-02-06T14:18:44.399Z,0.94
2023-02-06T14:21:24.965Z,0.82
2023-02-06T14:24:23.264Z,0.93
2023-02-06T14:27:02.410Z,0.92
2023-02-06T14:29:44.747Z,0.91
2023-02-06T14:32:40.686Z,0.87
2023-02-06T14:35:25.871Z,0.82
2023-02-06T14:38:28.182Z,0.79
2023-02-06T14:40:59.523Z,0.75
2023-02-06T14:43:30.388Z,0.77
2023-02-06T14:46:10.659Z,0.73
2023-02-06T14:48:58.447Z,0.69
2023-02-06T14:51:38.301Z,0.61
2023-02-06T14:54:26.933Z,0.55
2023-02-06T14:56:59.576Z,0.51
2023-02-06T14:59:26.875Z,0.49
2023-02-06T15:01:55.892Z,0.41
2023-02-06T15:04:26.437Z,0.44
2023-02-06T15:07:02.159Z,0.39
2023-02-06T15:09:34.433Z,0.31
2023-02-06T15:12:05.099Z,0.28
2023-02-06T15:14:35.176Z,0.22
2023-02-06T15:17:03.046Z,0.19
2023-02-06T15:19:32.845Z,0.18
2023-02-06T15:22:06.948Z,0.15
2023-02-06T15:24:46.265Z,0.06
2023-02-06T15:27:30.353Z,0.05
2023-02-06T15:29:58.441Z,-0.04
2023-02-06T15:32:33.227Z,-0.11
2023-02-06T15:35:01.789Z,-0.16
2023-02-06T15:37:32.935Z,-0.22
2023-02-06T15:40:23.184Z,-0.33
2023-02-06T15:42:50.607Z,-0.48
2023-02-06T15:45:27.727Z,-0.54
2023-02-06T15:47:56.084Z,-0.60
2023-02-06T15:50:27.949Z,-0.70
2023-02-06T15:52:56.327Z,-0.80
2023-02-06T15:55:31.572Z,-0.86
2023-02-06T15:58:00.663Z,-0.95
2023-02-06T16:00:31.468Z,-1.02
2023-02-06T16:03:05.304Z,-1.04
2023-02-06T16:05:40.867Z,-1.06
2023-02-06T16:08:16.688Z,-1.07
2023-02-06T16:10:50.489Z,-1.18
2023-02-06T16:13:21.719Z,-1.19
2023-02-06T16:16:07.500Z,-1.22
2023-02-06T16:18:37.877Z,-1.26
2023-02-06T16:21:29.167Z,-1.36
2023-02-06T16:24:07.891Z,-1.36
2023-02-06T16:26:49.427Z,-1.38
2023-02-06T16:29:31.960Z,-1.45
2023-02-06T16:32:14.971Z,-1.53
2023-02-06T16:34:44.484Z,-1.61
2023-02-06T16:37:23.738Z,-1.59
2023-02-06T16:39:50.990Z,-1.64
2023-02-06T16:42:21.782Z,-1.59
2023-02-06T16:44:52.501Z,-1.58
2023-02-06T16:47:21.448Z,-1.57
2023-02-06T16:49:48.555Z,-1.65
2023-02-06T16:52:29.297Z,-1.68
2023-02-06T16:55:00.577Z,-1.69
2023-02-06T16:57:41.925Z,-1.70
2023-02-06T17:00:16.438Z,-1.69
2023-02-06T17:02:43.561Z,-1.70
2023-02-06T17:05:10.888Z,-1.66
2023-02-06T17:07:38.443Z,-1.66
2023-02-06T17:10:06.291Z,-1.65
2023-02-06T17:12:34.644Z,-1.69
2023-02-06T17:15:02.122Z,-1.75
2023-02-06T17:17:29.342Z,-1.79
2023-02-06T17:19:56.648Z,-1.86
2023-02-06T17:22:24.118Z,-1.93
2023-02-06T17:24:51.558Z,-2.03
2023-02-06T17:27:21.739Z,-2.01
2023-02-06T17:29:50.823Z,-2.06
2023-02-06T17:32:22.400Z,-2.15
2023-02-06T17:34:51.706Z,-2.17
2023-02-06T17:37:22.161Z,-2.22
2023-02-06T17:39:51.600Z,-2.26
2023-02-06T17:42:19.453Z,-2.32
2023-02-06T17:44:46.584Z,-2.28
2023-02-06T17:47:13.763Z,-2.29
2023-02-06T17:49:40.887Z,-2.31
2023-02-06T17:52:07.959Z,-2.26
2023-02-06T17:54:35.887Z,-2.32
2023-02-06T17:57:03.433Z,-2.38
2023-02-06T17:59:30.558Z,-2.42
2023-02-06T18:01:57.807Z,-2.46
2023-02-06T18:04:25.365Z,-2.45
2023-02-06T18:06:52.505Z,-2.47
2023-02-06T18:09:19.776Z,-2.45
2023-02-06T18:11:47.030Z,-2.45
2023-02-06T18:14:14.233Z,-2.58
2023-02-06T18:16:43.130Z,-2.53
2023-02-06T18:19:10.757Z,-2.58
2023-02-06T18:21:39.916Z,-2.57
2023-02-06T18:24:07.597Z,-2.55
2023-02-06T18:26:34.830Z,-2.56
2023-02-06T18:29:06.142Z,-2.71
2023-02-06T18:31:35.289Z,-2.58
2023-02-06T18:34:08.100Z,-2.53
2023-02-06T18:36:36.297Z,-2.58
2023-02-06T18:39:04.400Z,-2.55
2023-02-06T18:41:49.900Z,-2.56
2023-02-06T18:44:17.073Z,-2.55
2023-02-06T18:46:44.292Z,-2.58
2023-02-06T18:49:11.502Z,-2.47
2023-02-06T18:51:38.603Z,-2.46
2023-02-06T18:54:07.997Z,-2.43
2023-02-06T18:56:35.501Z,-2.40
2023-02-06T18:59:04.180Z,-2.35
2023-02-06T19:01:32.086Z,-2.33
2023-02-06T19:04:00.097Z,-2.37
2023-02-06T19:06:35.560Z,-2.27
2023-02-06T19:09:07.404Z,-2.26
2023-02-06T19:11:36.199Z,-2.28
2023-02-06T19:14:05.036Z,-2.29
2023-02-06T19:16:32.995Z,-2.34
2023-02-06T19:19:00.464Z,-2.28
2023-02-06T19:21:28.408Z,-2.25
2023-02-06T19:23:58.536Z,-2.25
2023-02-06T19:26:26.130Z,-2.27
2023-02-06T19:28:53.891Z,-2.26
2023-02-06T19:31:24.220Z,-2.22
2023-02-06T19:33:56.689Z,-2.26
2023-02-06T19:36:25.414Z,-2.36
2023-02-06T19:38:58.826Z,-2.38
2023-02-06T19:41:28.063Z,-2.42
2023-02-06T19:43:57.574Z,-2.45
2023-02-06T19:46:26.812Z,-2.50
2023-02-06T19:48:55.162Z,-2.59
2023-02-06T19:51:25.497Z,-2.55
2023-02-06T19:53:54.765Z,-2.53
2023-02-06T19:56:26.438Z,-2.58
2023-02-06T19:59:05.950Z,-2.64
2023-02-06T20:01:33.292Z,-2.65
2023-02-06T20:04:02.118Z,-2.63
2023-02-06T20:06:35.134Z,-2.65
2023-02-06T20:09:03.681Z,-2.68
2023-02-06T20:11:32.242Z,-2.63
2023-02-06T20:13:59.771Z,-2.57
2023-02-06T20:16:29.500Z,-2.52
2023-02-06T20:18:57.250Z,-2.46
2023-02-06T20:21:39.195Z,-2.42
2023-02-06T20:24:10.740Z,-2.37
2023-02-06T20:26:39.639Z,-2.33
2023-02-06T20:29:08.393Z,-2.27
2023-02-06T20:31:36.384Z,-2.23
2023-02-06T20:34:04.028Z,-2.26
2023-02-06T20:36:31.254Z,-2.20
2023-02-06T20:39:00.247Z,-2.16
2023-02-06T20:41:31.394Z,-2.10
2023-02-06T20:44:00.142Z,-2.05
2023-02-06T20:46:29.961Z,-2.02
2023-02-06T20:48:59.714Z,-2.03
2023-02-06T20:51:27.680Z,-2.08
2023-02-06T20:53:54.978Z,-2.07
2023-02-06T20:56:23.107Z,-2.04
2023-02-06T20:58:51.418Z,-2.07
2023-02-06T21:01:23.862Z,-2.07
2023-02-06T21:03:54.458Z,-2.03
2023-02-06T21:06:22.226Z,-2.01
2023-02-06T21:08:50.510Z,-1.93
2023-02-06T21:11:18.182Z,-1.93
2023-02-06T21:13:45.388Z,-1.88
2023-02-06T21:16:13.653Z,-1.81
2023-02-06T21:18:42.806Z,-1.77
2023-02-06T21:21:14.400Z,-1.84
2023-02-06T21:23:43.850Z,-1.72
2023-02-06T21:26:13.032Z,-1.71
2023-02-06T21:28:41.190Z,-1.72
2023-02-06T21:31:13.137Z,-1.71
2023-02-06T21:33:40.319Z,-1.72
2023-02-06T21:36:07.936Z,-1.75
2023-02-06T21:38:39.355Z,-1.72
2023-02-06T21:41:11.876Z,-1.71
2023-02-06T21:43:40.574Z,-1.69
2023-02-06T21:46:10.026Z,-1.72
2023-02-06T21:48:37.508Z,-1.72
2023-02-06T21:51:15.781Z,-1.67
2023-02-06T21:53:44.687Z,-1.68
2023-02-06T21:56:15.839Z,-1.67
2023-02-06T21:58:42.958Z,-1.65
2023-02-06T22:01:18.683Z,-1.64
2023-02-06T22:03:47.273Z,-1.60
2023-02-06T22:06:15.192Z,-1.60
2023-02-06T22:08:44.698Z,-1.57
2023-02-06T22:11:30.644Z,-1.58
2023-02-06T22:14:00.003Z,-1.57
2023-02-06T22:16:28.110Z,-1.56
2023-02-06T22:18:56.682Z,-1.57
2023-02-06T22:21:26.691Z,-1.59
2023-02-06T22:23:57.795Z,-1.58
2023-02-06T22:26:25.650Z,-1.56
2023-02-06T22:28:52.772Z,-1.65
2023-02-06T22:31:25.060Z,-1.63
2023-02-06T22:33:53.219Z,-1.64
2023-02-06T22:36:26.137Z,-1.71
2023-02-06T22:38:59.695Z,-1.70
2023-02-06T22:41:27.836Z,-1.65
2023-02-06T22:43:54.989Z,-1.64
2023-02-06T22:46:32.306Z,-1.65
2023-02-06T22:49:00.098Z,-1.66
2023-02-06T22:51:28.031Z,-1.65
2023-02-06T22:53:55.584Z,-1.60
2023-02-06T22:56:28.138Z,-1.57
2023-02-06T22:59:02.415Z,-1.58
2023-02-06T23:01:36.244Z,-1.56
2023-02-06T23:04:05.249Z,-1.53
2023-02-06T23:06:33.830Z,-1.51
2023-02-06T23:09:02.756Z,-1.50
2023-02-06T23:11:31.905Z,-1.52
2023-02-06T23:14:01.728Z,-1.48
2023-02-06T23:16:30.315Z,-1.46
2023-02-06T23:18:57.548Z,-1.45
2023-02-06T23:21:26.006Z,-1.44
2023-02-06T23:23:55.290Z,-1.37
2023-02-06T23:26:22.691Z,-1.37
2023-02-06T23:28:50.047Z,-1.32
2023-02-06T23:31:17.612Z,-1.31
2023-02-06T23:33:44.807Z,-1.29
2023-02-06T23:36:16.058Z,-1.27
2023-02-06T23:38:44.205Z,-1.25
2023-02-06T23:41:19.995Z,-1.24
2023-02-06T23:43:58.464Z,-1.24
2023-02-06T23:46:26.798Z,-1.23
2023-02-06T23:48:54.841Z,-1.22
2023-02-06T23:51:22.818Z,-1.20
2023-02-06T23:53:50.430Z,-1.19
2023-02-06T23:56:28.035Z,-1.16
2023-02-06T23:58:57.131Z,-1.12
